sensor_id;sensor_type;location;lat;lon;timestamp;P1;durP1;ratioP1;P2;durP2;ratioP2
53879;SDS011;39791;53.184;5.486;2023-05-10T00:00:12;10.65;;;8.80;;
53879;SDS011;39791;53.184;5.486;2023-05-10T00:02:38;19.65;;;13.45;;
53879;SDS011;39791;53.184;5.486;2023-05-10T00:05:04;32.95;;;21.17;;
53879;SDS011;39791;53.184;5.486;2023-05-10T00:07:30;23.05;;;17.98;;
53879;SDS011;39791;53.184;5.486;2023-05-10T00:09:55;23.15;;;19.65;;
53879;SDS011;39791;53.184;5.486;2023-05-10T00:12:21;33.92;;;26.52;;
53879;SDS011;39791;53.184;5.486;2023-05-10T00:14:47;21.70;;;19.27;;
53879;SDS011;39791;53.184;5.486;2023-05-10T00:17:12;22.42;;;18.30;;
53879;SDS011;39791;53.184;5.486;2023-05-10T00:19:39;20.10;;;18.10;;
53879;SDS011;39791;53.184;5.486;2023-05-10T00:22:04;21.20;;;19.02;;
53879;SDS011;39791;53.184;5.486;2023-05-10T00:24:30;21.00;;;18.90;;
53879;SDS011;39791;53.184;5.486;2023-05-10T00:26:55;18.10;;;16.27;;
53879;SDS011;39791;53.184;5.486;2023-05-10T00:29:21;19.90;;;17.80;;
53879;SDS011;39791;53.184;5.486;2023-05-10T00:31:46;17.15;;;14.88;;
53879;SDS011;39791;53.184;5.486;2023-05-10T00:34:12;19.73;;;17.63;;
53879;SDS011;39791;53.184;5.486;2023-05-10T00:36:37;17.23;;;15.50;;
53879;SDS011;39791;53.184;5.486;2023-05-10T00:39:03;15.93;;;14.43;;
53879;SDS011;39791;53.184;5.486;2023-05-10T00:41:29;12.88;;;11.57;;
53879;SDS011;39791;53.184;5.486;2023-05-10T00:43:57;10.98;;;9.88;;
53879;SDS011;39791;53.184;5.486;2023-05-10T00:46:23;15.27;;;11.57;;
53879;SDS011;39791;53.184;5.486;2023-05-10T00:48:49;30.67;;;25.63;;
53879;SDS011;39791;53.184;5.486;2023-05-10T00:51:15;38.75;;;25.77;;
53879;SDS011;39791;53.184;5.486;2023-05-10T00:53:41;47.90;;;23.25;;
53879;SDS011;39791;53.184;5.486;2023-05-10T00:56:07;69.68;;;25.05;;
53879;SDS011;39791;53.184;5.486;2023-05-10T00:58:33;66.18;;;28.05;;
53879;SDS011;39791;53.184;5.486;2023-05-10T01:00:58;73.18;;;25.60;;
53879;SDS011;39791;53.184;5.486;2023-05-10T01:03:25;52.72;;;23.40;;
53879;SDS011;39791;53.184;5.486;2023-05-10T01:05:51;52.40;;;29.73;;
53879;SDS011;39791;53.184;5.486;2023-05-10T01:08:16;41.45;;;25.70;;
53879;SDS011;39791;53.184;5.486;2023-05-10T01:10:42;19.80;;;16.30;;
53879;SDS011;39791;53.184;5.486;2023-05-10T01:13:08;18.75;;;16.40;;
53879;SDS011;39791;53.184;5.486;2023-05-10T01:15:35;18.88;;;16.17;;
53879;SDS011;39791;53.184;5.486;2023-05-10T01:18:01;18.92;;;17.13;;
53879;SDS011;39791;53.184;5.486;2023-05-10T01:20:28;16.38;;;14.43;;
53879;SDS011;39791;53.184;5.486;2023-05-10T01:26:21;15.80;;;13.40;;
53879;SDS011;39791;53.184;5.486;2023-05-10T01:32:07;28.33;;;15.18;;
53879;SDS011;39791;53.184;5.486;2023-05-10T01:35:08;18.88;;;14.85;;
53879;SDS011;39791;53.184;5.486;2023-05-10T01:37:44;22.05;;;15.30;;
53879;SDS011;39791;53.184;5.486;2023-05-10T01:43:26;15.63;;;11.88;;
53879;SDS011;39791;53.184;5.486;2023-05-10T01:48:35;19.35;;;14.95;;
53879;SDS011;39791;53.184;5.486;2023-05-10T01:51:06;20.52;;;16.63;;
53879;SDS011;39791;53.184;5.486;2023-05-10T01:53:33;17.65;;;14.85;;
53879;SDS011;39791;53.184;5.486;2023-05-10T01:56:02;18.30;;;13.13;;
53879;SDS011;39791;53.184;5.486;2023-05-10T01:58:30;14.32;;;12.32;;
53879;SDS011;39791;53.184;5.486;2023-05-10T02:00:58;12.38;;;10.93;;
53879;SDS011;39791;53.184;5.486;2023-05-10T02:03:26;11.07;;;10.00;;
53879;SDS011;39791;53.184;5.486;2023-05-10T02:05:53;11.13;;;8.20;;
53879;SDS011;39791;53.184;5.486;2023-05-10T02:08:21;10.50;;;9.40;;
53879;SDS011;39791;53.184;5.486;2023-05-10T02:10:47;7.18;;;6.50;;
53879;SDS011;39791;53.184;5.486;2023-05-10T02:13:17;7.65;;;6.82;;
53879;SDS011;39791;53.184;5.486;2023-05-10T02:15:43;6.45;;;5.85;;
53879;SDS011;39791;53.184;5.486;2023-05-10T02:18:12;5.53;;;5.13;;
53879;SDS011;39791;53.184;5.486;2023-05-10T02:20:40;5.50;;;5.03;;
53879;SDS011;39791;53.184;5.486;2023-05-10T02:23:06;5.47;;;5.07;;
53879;SDS011;39791;53.184;5.486;2023-05-10T02:25:34;6.22;;;5.53;;
53879;SDS011;39791;53.184;5.486;2023-05-10T02:28:03;6.00;;;5.50;;
53879;SDS011;39791;53.184;5.486;2023-05-10T02:30:31;6.82;;;6.22;;
53879;SDS011;39791;53.184;5.486;2023-05-10T02:32:57;6.28;;;5.78;;
53879;SDS011;39791;53.184;5.486;2023-05-10T02:35:24;6.95;;;6.20;;
53879;SDS011;39791;53.184;5.486;2023-05-10T02:37:52;8.25;;;7.55;;
53879;SDS011;39791;53.184;5.486;2023-05-10T02:40:19;8.63;;;7.82;;
53879;SDS011;39791;53.184;5.486;2023-05-10T02:42:47;8.00;;;7.30;;
53879;SDS011;39791;53.184;5.486;2023-05-10T02:45:19;8.05;;;7.25;;
53879;SDS011;39791;53.184;5.486;2023-05-10T02:47:48;8.20;;;7.03;;
53879;SDS011;39791;53.184;5.486;2023-05-10T02:50:14;5.90;;;5.22;;
53879;SDS011;39791;53.184;5.486;2023-05-10T02:52:40;4.95;;;4.47;;
53879;SDS011;39791;53.184;5.486;2023-05-10T02:55:11;5.03;;;3.53;;
53879;SDS011;39791;53.184;5.486;2023-05-10T02:57:43;4.00;;;3.63;;
53879;SDS011;39791;53.184;5.486;2023-05-10T03:00:15;5.20;;;4.47;;
53879;SDS011;39791;53.184;5.486;2023-05-10T03:02:41;5.63;;;4.80;;
53879;SDS011;39791;53.184;5.486;2023-05-10T03:05:07;5.80;;;5.30;;
53879;SDS011;39791;53.184;5.486;2023-05-10T03:07:33;6.70;;;5.60;;
53879;SDS011;39791;53.184;5.486;2023-05-10T03:09:58;6.22;;;5.63;;
53879;SDS011;39791;53.184;5.486;2023-05-10T03:15:25;6.03;;;5.63;;
53879;SDS011;39791;53.184;5.486;2023-05-10T03:18:06;5.88;;;5.38;;
53879;SDS011;39791;53.184;5.486;2023-05-10T03:20:45;5.50;;;5.10;;
53879;SDS011;39791;53.184;5.486;2023-05-10T03:25:46;5.40;;;4.20;;
53879;SDS011;39791;53.184;5.486;2023-05-10T03:28:14;4.05;;;3.75;;
53879;SDS011;39791;53.184;5.486;2023-05-10T03:30:42;4.45;;;4.05;;
53879;SDS011;39791;53.184;5.486;2023-05-10T03:33:08;5.25;;;4.55;;
53879;SDS011;39791;53.184;5.486;2023-05-10T03:35:34;6.15;;;5.38;;
53879;SDS011;39791;53.184;5.486;2023-05-10T03:38:00;9.75;;;6.00;;
53879;SDS011;39791;53.184;5.486;2023-05-10T03:40:26;6.85;;;6.15;;
53879;SDS011;39791;53.184;5.486;2023-05-10T03:42:54;5.75;;;5.25;;
53879;SDS011;39791;53.184;5.486;2023-05-10T03:45:20;8.45;;;6.40;;
53879;SDS011;39791;53.184;5.486;2023-05-10T03:47:46;6.95;;;6.40;;
53879;SDS011;39791;53.184;5.486;2023-05-10T03:50:11;6.50;;;5.93;;
53879;SDS011;39791;53.184;5.486;2023-05-10T03:52:37;7.60;;;6.93;;
53879;SDS011;39791;53.184;5.486;2023-05-10T03:55:04;7.38;;;6.78;;
53879;SDS011;39791;53.184;5.486;2023-05-10T03:57:30;7.90;;;7.20;;
53879;SDS011;39791;53.184;5.486;2023-05-10T03:59:56;10.75;;;8.32;;
53879;SDS011;39791;53.184;5.486;2023-05-10T04:02:21;9.40;;;8.57;;
53879;SDS011;39791;53.184;5.486;2023-05-10T04:04:47;7.70;;;7.00;;
53879;SDS011;39791;53.184;5.486;2023-05-10T04:07:13;8.25;;;7.47;;
53879;SDS011;39791;53.184;5.486;2023-05-10T04:09:39;8.10;;;7.30;;
53879;SDS011;39791;53.184;5.486;2023-05-10T04:12:04;7.22;;;6.60;;
53879;SDS011;39791;53.184;5.486;2023-05-10T04:14:30;8.40;;;7.55;;
53879;SDS011;39791;53.184;5.486;2023-05-10T04:16:56;8.07;;;6.57;;
53879;SDS011;39791;53.184;5.486;2023-05-10T04:19:21;7.75;;;7.05;;
53879;SDS011;39791;53.184;5.486;2023-05-10T04:21:47;8.88;;;7.95;;
53879;SDS011;39791;53.184;5.486;2023-05-10T04:24:13;8.25;;;7.32;;
53879;SDS011;39791;53.184;5.486;2023-05-10T04:26:38;7.03;;;6.43;;
53879;SDS011;39791;53.184;5.486;2023-05-10T04:29:04;7.28;;;6.57;;
53879;SDS011;39791;53.184;5.486;2023-05-10T04:31:30;7.53;;;6.70;;
53879;SDS011;39791;53.184;5.486;2023-05-10T04:33:55;7.25;;;6.55;;
53879;SDS011;39791;53.184;5.486;2023-05-10T04:36:21;9.10;;;8.20;;
53879;SDS011;39791;53.184;5.486;2023-05-10T04:38:46;9.13;;;8.23;;
53879;SDS011;39791;53.184;5.486;2023-05-10T04:41:12;8.02;;;7.25;;
53879;SDS011;39791;53.184;5.486;2023-05-10T04:43:38;9.57;;;6.90;;
53879;SDS011;39791;53.184;5.486;2023-05-10T04:46:03;7.80;;;6.35;;
53879;SDS011;39791;53.184;5.486;2023-05-10T04:48:29;11.20;;;7.15;;
53879;SDS011;39791;53.184;5.486;2023-05-10T04:50:55;10.30;;;5.90;;
53879;SDS011;39791;53.184;5.486;2023-05-10T04:53:21;6.45;;;5.90;;
53879;SDS011;39791;53.184;5.486;2023-05-10T04:55:47;6.32;;;5.03;;
53879;SDS011;39791;53.184;5.486;2023-05-10T04:58:13;7.25;;;5.80;;
53879;SDS011;39791;53.184;5.486;2023-05-10T05:00:38;8.52;;;6.30;;
53879;SDS011;39791;53.184;5.486;2023-05-10T05:03:04;7.88;;;6.03;;
53879;SDS011;39791;53.184;5.486;2023-05-10T05:05:30;10.18;;;7.10;;
53879;SDS011;39791;53.184;5.486;2023-05-10T05:07:55;11.20;;;7.53;;
53879;SDS011;39791;53.184;5.486;2023-05-10T05:10:21;12.68;;;9.05;;
53879;SDS011;39791;53.184;5.486;2023-05-10T05:12:46;14.00;;;12.43;;
53879;SDS011;39791;53.184;5.486;2023-05-10T05:15:12;17.83;;;13.43;;
53879;SDS011;39791;53.184;5.486;2023-05-10T05:17:38;15.27;;;11.52;;
53879;SDS011;39791;53.184;5.486;2023-05-10T05:20:03;23.88;;;13.10;;
53879;SDS011;39791;53.184;5.486;2023-05-10T05:22:29;22.80;;;11.15;;
53879;SDS011;39791;53.184;5.486;2023-05-10T05:24:55;23.95;;;11.05;;
53879;SDS011;39791;53.184;5.486;2023-05-10T05:27:23;33.35;;;12.25;;
53879;SDS011;39791;53.184;5.486;2023-05-10T05:29:52;29.80;;;10.63;;
53879;SDS011;39791;53.184;5.486;2023-05-10T05:32:18;25.05;;;10.15;;
53879;SDS011;39791;53.184;5.486;2023-05-10T05:34:44;25.33;;;9.27;;
53879;SDS011;39791;53.184;5.486;2023-05-10T05:37:17;29.83;;;8.60;;
53879;SDS011;39791;53.184;5.486;2023-05-10T05:39:44;28.70;;;9.05;;
53879;SDS011;39791;53.184;5.486;2023-05-10T05:42:10;37.38;;;9.23;;
53879;SDS011;39791;53.184;5.486;2023-05-10T05:44:36;32.08;;;7.88;;
53879;SDS011;39791;53.184;5.486;2023-05-10T05:47:02;24.50;;;8.18;;
53879;SDS011;39791;53.184;5.486;2023-05-10T05:49:28;18.48;;;7.65;;
53879;SDS011;39791;53.184;5.486;2023-05-10T05:51:53;25.40;;;8.27;;
53879;SDS011;39791;53.184;5.486;2023-05-10T05:54:19;15.07;;;7.18;;
53879;SDS011;39791;53.184;5.486;2023-05-10T05:56:45;14.15;;;6.53;;
53879;SDS011;39791;53.184;5.486;2023-05-10T05:59:11;15.98;;;6.63;;
53879;SDS011;39791;53.184;5.486;2023-05-10T06:01:36;13.98;;;6.47;;
53879;SDS011;39791;53.184;5.486;2023-05-10T06:04:02;9.98;;;5.93;;
53879;SDS011;39791;53.184;5.486;2023-05-10T06:06:27;7.47;;;6.05;;
53879;SDS011;39791;53.184;5.486;2023-05-10T06:08:53;8.30;;;5.65;;
53879;SDS011;39791;53.184;5.486;2023-05-10T06:11:19;11.20;;;6.07;;
53879;SDS011;39791;53.184;5.486;2023-05-10T06:13:46;6.85;;;5.35;;
53879;SDS011;39791;53.184;5.486;2023-05-10T06:16:12;8.73;;;6.38;;
53879;SDS011;39791;53.184;5.486;2023-05-10T06:18:38;7.95;;;6.05;;
53879;SDS011;39791;53.184;5.486;2023-05-10T06:21:03;11.55;;;6.63;;
53879;SDS011;39791;53.184;5.486;2023-05-10T06:23:29;8.10;;;5.90;;
53879;SDS011;39791;53.184;5.486;2023-05-10T06:25:54;10.30;;;6.78;;
53879;SDS011;39791;53.184;5.486;2023-05-10T06:28:20;8.73;;;6.90;;
53879;SDS011;39791;53.184;5.486;2023-05-10T06:30:46;12.00;;;7.70;;
53879;SDS011;39791;53.184;5.486;2023-05-10T06:33:11;9.07;;;6.78;;
53879;SDS011;39791;53.184;5.486;2023-05-10T06:35:37;11.27;;;8.32;;
53879;SDS011;39791;53.184;5.486;2023-05-10T06:38:03;12.00;;;8.70;;
53879;SDS011;39791;53.184;5.486;2023-05-10T06:40:29;12.77;;;8.05;;
53879;SDS011;39791;53.184;5.486;2023-05-10T06:42:55;13.00;;;7.78;;
53879;SDS011;39791;53.184;5.486;2023-05-10T06:45:20;10.18;;;7.65;;
53879;SDS011;39791;53.184;5.486;2023-05-10T06:47:46;11.57;;;8.30;;
53879;SDS011;39791;53.184;5.486;2023-05-10T06:50:12;11.38;;;7.68;;
53879;SDS011;39791;53.184;5.486;2023-05-10T06:52:38;11.00;;;8.70;;
53879;SDS011;39791;53.184;5.486;2023-05-10T06:55:04;9.80;;;7.72;;
53879;SDS011;39791;53.184;5.486;2023-05-10T06:57:30;8.68;;;6.97;;
53879;SDS011;39791;53.184;5.486;2023-05-10T06:59:57;8.18;;;6.78;;
53879;SDS011;39791;53.184;5.486;2023-05-10T07:02:23;8.20;;;6.30;;
53879;SDS011;39791;53.184;5.486;2023-05-10T07:04:49;7.35;;;6.10;;
53879;SDS011;39791;53.184;5.486;2023-05-10T07:07:16;6.35;;;5.50;;
53879;SDS011;39791;53.184;5.486;2023-05-10T07:09:42;6.10;;;5.50;;
53879;SDS011;39791;53.184;5.486;2023-05-10T07:12:07;6.10;;;5.25;;
53879;SDS011;39791;53.184;5.486;2023-05-10T07:14:33;7.63;;;6.18;;
53879;SDS011;39791;53.184;5.486;2023-05-10T07:16:58;9.52;;;6.00;;
53879;SDS011;39791;53.184;5.486;2023-05-10T07:19:24;6.10;;;5.50;;
53879;SDS011;39791;53.184;5.486;2023-05-10T07:21:49;8.10;;;6.13;;
53879;SDS011;39791;53.184;5.486;2023-05-10T07:24:15;8.63;;;5.60;;
53879;SDS011;39791;53.184;5.486;2023-05-10T07:26:41;7.18;;;6.38;;
53879;SDS011;39791;53.184;5.486;2023-05-10T07:29:07;8.88;;;6.65;;
53879;SDS011;39791;53.184;5.486;2023-05-10T07:31:32;6.70;;;5.50;;
53879;SDS011;39791;53.184;5.486;2023-05-10T07:33:58;5.35;;;4.85;;
53879;SDS011;39791;53.184;5.486;2023-05-10T07:36:23;8.23;;;5.85;;
53879;SDS011;39791;53.184;5.486;2023-05-10T07:38:49;8.38;;;5.95;;
53879;SDS011;39791;53.184;5.486;2023-05-10T07:41:15;8.20;;;6.65;;
53879;SDS011;39791;53.184;5.486;2023-05-10T07:43:40;7.95;;;6.85;;
53879;SDS011;39791;53.184;5.486;2023-05-10T07:46:06;8.63;;;7.30;;
53879;SDS011;39791;53.184;5.486;2023-05-10T07:48:32;8.27;;;7.45;;
53879;SDS011;39791;53.184;5.486;2023-05-10T07:50:58;8.23;;;6.75;;
53879;SDS011;39791;53.184;5.486;2023-05-10T07:53:25;7.13;;;6.43;;
53879;SDS011;39791;53.184;5.486;2023-05-10T07:55:51;8.80;;;7.75;;
53879;SDS011;39791;53.184;5.486;2023-05-10T07:58:21;8.80;;;7.97;;
53879;SDS011;39791;53.184;5.486;2023-05-10T08:00:47;10.40;;;8.68;;
53879;SDS011;39791;53.184;5.486;2023-05-10T08:03:14;11.82;;;9.88;;
53879;SDS011;39791;53.184;5.486;2023-05-10T08:05:39;12.45;;;10.55;;
53879;SDS011;39791;53.184;5.486;2023-05-10T08:08:05;12.88;;;10.63;;
53879;SDS011;39791;53.184;5.486;2023-05-10T08:10:31;13.43;;;10.73;;
53879;SDS011;39791;53.184;5.486;2023-05-10T08:12:57;12.27;;;10.93;;
53879;SDS011;39791;53.184;5.486;2023-05-10T08:15:23;15.10;;;12.75;;
53879;SDS011;39791;53.184;5.486;2023-05-10T08:17:50;14.75;;;12.02;;
53879;SDS011;39791;53.184;5.486;2023-05-10T08:20:16;12.52;;;11.20;;
53879;SDS011;39791;53.184;5.486;2023-05-10T08:22:44;13.18;;;10.55;;
53879;SDS011;39791;53.184;5.486;2023-05-10T08:25:10;15.80;;;12.85;;
53879;SDS011;39791;53.184;5.486;2023-05-10T08:27:35;13.75;;;10.68;;
53879;SDS011;39791;53.184;5.486;2023-05-10T08:30:01;14.05;;;11.00;;
53879;SDS011;39791;53.184;5.486;2023-05-10T08:32:27;14.50;;;12.10;;
53879;SDS011;39791;53.184;5.486;2023-05-10T08:34:52;15.05;;;11.77;;
53879;SDS011;39791;53.184;5.486;2023-05-10T08:37:18;15.85;;;12.05;;
53879;SDS011;39791;53.184;5.486;2023-05-10T08:39:43;12.35;;;11.05;;
53879;SDS011;39791;53.184;5.486;2023-05-10T08:42:12;12.77;;;10.80;;
53879;SDS011;39791;53.184;5.486;2023-05-10T08:44:43;10.80;;;9.45;;
53879;SDS011;39791;53.184;5.486;2023-05-10T08:47:11;10.70;;;9.45;;
53879;SDS011;39791;53.184;5.486;2023-05-10T08:49:39;8.60;;;7.80;;
53879;SDS011;39791;53.184;5.486;2023-05-10T08:52:06;10.57;;;9.48;;
53879;SDS011;39791;53.184;5.486;2023-05-10T08:54:33;11.57;;;10.43;;
53879;SDS011;39791;53.184;5.486;2023-05-10T08:56:59;9.98;;;8.95;;
53879;SDS011;39791;53.184;5.486;2023-05-10T08:59:25;14.93;;;12.45;;
53879;SDS011;39791;53.184;5.486;2023-05-10T09:01:50;17.75;;;14.27;;
53879;SDS011;39791;53.184;5.486;2023-05-10T09:04:18;17.88;;;13.82;;
53879;SDS011;39791;53.184;5.486;2023-05-10T09:06:44;22.90;;;15.48;;
53879;SDS011;39791;53.184;5.486;2023-05-10T09:09:10;17.40;;;12.27;;
53879;SDS011;39791;53.184;5.486;2023-05-10T09:11:36;13.95;;;12.40;;
53879;SDS011;39791;53.184;5.486;2023-05-10T09:14:01;14.77;;;13.18;;
53879;SDS011;39791;53.184;5.486;2023-05-10T09:16:27;13.70;;;12.30;;
53879;SDS011;39791;53.184;5.486;2023-05-10T09:18:53;13.23;;;11.93;;
53879;SDS011;39791;53.184;5.486;2023-05-10T09:21:19;14.15;;;12.60;;
53879;SDS011;39791;53.184;5.486;2023-05-10T09:23:45;17.23;;;14.43;;
53879;SDS011;39791;53.184;5.486;2023-05-10T09:26:12;13.07;;;11.73;;
53879;SDS011;39791;53.184;5.486;2023-05-10T09:28:54;15.80;;;14.13;;
53879;SDS011;39791;53.184;5.486;2023-05-10T09:31:23;15.82;;;14.30;;
53879;SDS011;39791;53.184;5.486;2023-05-10T09:33:53;18.27;;;15.85;;
53879;SDS011;39791;53.184;5.486;2023-05-10T09:36:18;22.05;;;19.60;;
53879;SDS011;39791;53.184;5.486;2023-05-10T09:38:45;20.58;;;17.92;;
53879;SDS011;39791;53.184;5.486;2023-05-10T09:41:22;16.35;;;14.65;;
53879;SDS011;39791;53.184;5.486;2023-05-10T09:43:49;15.70;;;14.10;;
53879;SDS011;39791;53.184;5.486;2023-05-10T09:46:15;19.58;;;17.58;;
53879;SDS011;39791;53.184;5.486;2023-05-10T09:48:45;17.25;;;15.02;;
53879;SDS011;39791;53.184;5.486;2023-05-10T09:51:24;20.17;;;17.13;;
53879;SDS011;39791;53.184;5.486;2023-05-10T09:54:11;17.25;;;15.43;;
53879;SDS011;39791;53.184;5.486;2023-05-10T09:56:41;20.52;;;17.88;;
53879;SDS011;39791;53.184;5.486;2023-05-10T09:59:10;19.35;;;17.45;;
53879;SDS011;39791;53.184;5.486;2023-05-10T10:01:37;26.63;;;17.27;;
53879;SDS011;39791;53.184;5.486;2023-05-10T10:04:04;18.00;;;15.07;;
53879;SDS011;39791;53.184;5.486;2023-05-10T10:06:34;17.48;;;15.68;;
53879;SDS011;39791;53.184;5.486;2023-05-10T10:09:01;16.77;;;13.57;;
53879;SDS011;39791;53.184;5.486;2023-05-10T10:11:27;13.43;;;12.02;;
53879;SDS011;39791;53.184;5.486;2023-05-10T10:13:53;12.88;;;11.57;;
53879;SDS011;39791;53.184;5.486;2023-05-10T10:16:19;11.27;;;10.07;;
53879;SDS011;39791;53.184;5.486;2023-05-10T10:18:46;12.00;;;9.77;;
53879;SDS011;39791;53.184;5.486;2023-05-10T10:21:13;15.40;;;11.82;;
53879;SDS011;39791;53.184;5.486;2023-05-10T10:23:39;13.57;;;12.13;;
53879;SDS011;39791;53.184;5.486;2023-05-10T10:26:05;12.43;;;10.52;;
53879;SDS011;39791;53.184;5.486;2023-05-10T10:31:21;10.70;;;9.60;;
53879;SDS011;39791;53.184;5.486;2023-05-10T10:33:51;10.27;;;9.30;;
53879;SDS011;39791;53.184;5.486;2023-05-10T10:36:24;12.35;;;10.90;;
53879;SDS011;39791;53.184;5.486;2023-05-10T10:41:29;10.15;;;9.20;;
53879;SDS011;39791;53.184;5.486;2023-05-10T10:49:30;13.32;;;11.15;;
53879;SDS011;39791;53.184;5.486;2023-05-10T10:57:26;15.60;;;13.52;;
53879;SDS011;39791;53.184;5.486;2023-05-10T11:02:44;17.38;;;15.57;;
53879;SDS011;39791;53.184;5.486;2023-05-10T11:05:38;17.45;;;15.38;;
53879;SDS011;39791;53.184;5.486;2023-05-10T11:16:09;22.42;;;18.33;;
53879;SDS011;39791;53.184;5.486;2023-05-10T11:18:36;22.83;;;17.92;;
53879;SDS011;39791;53.184;5.486;2023-05-10T11:21:02;25.83;;;20.73;;
53879;SDS011;39791;53.184;5.486;2023-05-10T11:23:47;25.42;;;21.25;;
53879;SDS011;39791;53.184;5.486;2023-05-10T11:26:33;20.90;;;18.52;;
53879;SDS011;39791;53.184;5.486;2023-05-10T11:29:00;25.77;;;20.73;;
53879;SDS011;39791;53.184;5.486;2023-05-10T11:31:27;27.05;;;21.83;;
53879;SDS011;39791;53.184;5.486;2023-05-10T11:33:54;24.10;;;19.17;;
53879;SDS011;39791;53.184;5.486;2023-05-10T11:36:23;24.70;;;20.95;;
53879;SDS011;39791;53.184;5.486;2023-05-10T11:38:51;22.83;;;17.33;;
53879;SDS011;39791;53.184;5.486;2023-05-10T11:41:17;24.23;;;21.25;;
53879;SDS011;39791;53.184;5.486;2023-05-10T11:43:44;26.88;;;22.48;;
53879;SDS011;39791;53.184;5.486;2023-05-10T11:46:12;30.88;;;25.50;;
53879;SDS011;39791;53.184;5.486;2023-05-10T11:48:38;26.73;;;23.40;;
53879;SDS011;39791;53.184;5.486;2023-05-10T11:51:04;24.33;;;20.67;;
53879;SDS011;39791;53.184;5.486;2023-05-10T11:53:31;26.75;;;23.23;;
53879;SDS011;39791;53.184;5.486;2023-05-10T11:58:33;21.38;;;18.17;;
53879;SDS011;39791;53.184;5.486;2023-05-10T12:00:59;26.58;;;20.48;;
53879;SDS011;39791;53.184;5.486;2023-05-10T12:03:29;27.10;;;23.63;;
53879;SDS011;39791;53.184;5.486;2023-05-10T12:05:55;24.13;;;19.15;;
53879;SDS011;39791;53.184;5.486;2023-05-10T12:08:22;24.88;;;21.20;;
53879;SDS011;39791;53.184;5.486;2023-05-10T12:10:50;26.10;;;20.30;;
53879;SDS011;39791;53.184;5.486;2023-05-10T12:13:16;25.23;;;19.10;;
53879;SDS011;39791;53.184;5.486;2023-05-10T12:15:43;22.92;;;18.17;;
53879;SDS011;39791;53.184;5.486;2023-05-10T12:18:09;22.55;;;17.95;;
53879;SDS011;39791;53.184;5.486;2023-05-10T12:20:35;19.95;;;17.83;;
53879;SDS011;39791;53.184;5.486;2023-05-10T12:23:01;26.27;;;21.23;;
53879;SDS011;39791;53.184;5.486;2023-05-10T12:25:32;30.55;;;22.30;;
53879;SDS011;39791;53.184;5.486;2023-05-10T12:27:58;31.17;;;23.60;;
53879;SDS011;39791;53.184;5.486;2023-05-10T12:30:29;28.98;;;20.90;;
53879;SDS011;39791;53.184;5.486;2023-05-10T12:33:06;25.88;;;20.75;;
53879;SDS011;39791;53.184;5.486;2023-05-10T12:35:33;25.10;;;20.13;;
53879;SDS011;39791;53.184;5.486;2023-05-10T12:38:25;23.27;;;20.55;;
53879;SDS011;39791;53.184;5.486;2023-05-10T12:41:03;18.83;;;16.88;;
53879;SDS011;39791;53.184;5.486;2023-05-10T12:43:31;17.30;;;15.60;;
53879;SDS011;39791;53.184;5.486;2023-05-10T12:45:56;18.35;;;16.45;;
53879;SDS011;39791;53.184;5.486;2023-05-10T12:48:22;15.90;;;14.30;;
53879;SDS011;39791;53.184;5.486;2023-05-10T12:50:48;14.82;;;12.20;;
53879;SDS011;39791;53.184;5.486;2023-05-10T12:53:14;12.13;;;10.93;;
53879;SDS011;39791;53.184;5.486;2023-05-10T12:55:43;10.55;;;9.15;;
53879;SDS011;39791;53.184;5.486;2023-05-10T12:58:09;12.77;;;11.10;;
53879;SDS011;39791;53.184;5.486;2023-05-10T13:00:35;10.18;;;9.10;;
53879;SDS011;39791;53.184;5.486;2023-05-10T13:03:03;8.68;;;7.88;;
53879;SDS011;39791;53.184;5.486;2023-05-10T13:05:30;7.68;;;7.00;;
53879;SDS011;39791;53.184;5.486;2023-05-10T13:07:59;9.07;;;8.18;;
53879;SDS011;39791;53.184;5.486;2023-05-10T13:10:25;7.25;;;6.57;;
53879;SDS011;39791;53.184;5.486;2023-05-10T13:12:50;7.00;;;6.35;;
53879;SDS011;39791;53.184;5.486;2023-05-10T13:15:16;8.80;;;7.82;;
53879;SDS011;39791;53.184;5.486;2023-05-10T13:17:42;9.20;;;8.30;;
53879;SDS011;39791;53.184;5.486;2023-05-10T13:20:08;11.23;;;8.75;;
53879;SDS011;39791;53.184;5.486;2023-05-10T13:22:37;9.55;;;8.57;;
53879;SDS011;39791;53.184;5.486;2023-05-10T13:25:02;8.63;;;7.82;;
53879;SDS011;39791;53.184;5.486;2023-05-10T13:27:28;7.38;;;6.68;;
53879;SDS011;39791;53.184;5.486;2023-05-10T13:29:54;8.90;;;8.10;;
53879;SDS011;39791;53.184;5.486;2023-05-10T13:32:20;8.20;;;7.50;;
53879;SDS011;39791;53.184;5.486;2023-05-10T13:34:45;9.75;;;8.63;;
53879;SDS011;39791;53.184;5.486;2023-05-10T13:37:11;9.20;;;8.40;;
53879;SDS011;39791;53.184;5.486;2023-05-10T13:39:37;9.23;;;7.63;;
53879;SDS011;39791;53.184;5.486;2023-05-10T13:42:02;10.68;;;8.00;;
53879;SDS011;39791;53.184;5.486;2023-05-10T13:44:28;8.48;;;6.82;;
53879;SDS011;39791;53.184;5.486;2023-05-10T13:46:55;6.43;;;5.72;;
53879;SDS011;39791;53.184;5.486;2023-05-10T13:49:21;10.88;;;8.07;;
53879;SDS011;39791;53.184;5.486;2023-05-10T13:51:47;9.40;;;8.07;;
53879;SDS011;39791;53.184;5.486;2023-05-10T13:54:12;6.43;;;5.72;;
53879;SDS011;39791;53.184;5.486;2023-05-10T13:56:38;6.60;;;6.00;;
53879;SDS011;39791;53.184;5.486;2023-05-10T13:59:05;7.63;;;6.85;;
53879;SDS011;39791;53.184;5.486;2023-05-10T14:01:32;9.35;;;7.38;;
53879;SDS011;39791;53.184;5.486;2023-05-10T14:03:58;9.35;;;8.13;;
53879;SDS011;39791;53.184;5.486;2023-05-10T14:06:24;8.40;;;7.60;;
53879;SDS011;39791;53.184;5.486;2023-05-10T14:08:49;9.30;;;8.38;;
53879;SDS011;39791;53.184;5.486;2023-05-10T14:11:15;11.30;;;9.52;;
53879;SDS011;39791;53.184;5.486;2023-05-10T14:13:40;8.82;;;8.02;;
53879;SDS011;39791;53.184;5.486;2023-05-10T14:16:06;14.23;;;11.18;;
53879;SDS011;39791;53.184;5.486;2023-05-10T14:18:32;12.57;;;11.15;;
53879;SDS011;39791;53.184;5.486;2023-05-10T14:20:58;10.55;;;9.55;;
53879;SDS011;39791;53.184;5.486;2023-05-10T14:23:23;12.52;;;11.23;;
53879;SDS011;39791;53.184;5.486;2023-05-10T14:25:52;15.82;;;11.85;;
53879;SDS011;39791;53.184;5.486;2023-05-10T14:28:17;13.10;;;10.00;;
53879;SDS011;39791;53.184;5.486;2023-05-10T14:30:44;15.25;;;10.80;;
53879;SDS011;39791;53.184;5.486;2023-05-10T14:33:10;12.73;;;9.70;;
53879;SDS011;39791;53.184;5.486;2023-05-10T14:35:35;11.25;;;9.57;;
53879;SDS011;39791;53.184;5.486;2023-05-10T14:38:04;14.00;;;11.15;;
53879;SDS011;39791;53.184;5.486;2023-05-10T14:40:30;14.85;;;10.48;;
53879;SDS011;39791;53.184;5.486;2023-05-10T14:42:56;13.60;;;10.88;;
53879;SDS011;39791;53.184;5.486;2023-05-10T14:45:21;10.07;;;8.77;;
53879;SDS011;39791;53.184;5.486;2023-05-10T14:47:48;10.13;;;9.13;;
53879;SDS011;39791;53.184;5.486;2023-05-10T14:50:14;12.68;;;8.95;;
53879;SDS011;39791;53.184;5.486;2023-05-10T14:52:40;9.38;;;8.43;;
53879;SDS011;39791;53.184;5.486;2023-05-10T14:55:06;12.38;;;9.18;;
53879;SDS011;39791;53.184;5.486;2023-05-10T14:57:32;13.93;;;12.07;;
53879;SDS011;39791;53.184;5.486;2023-05-10T14:59:58;22.05;;;13.52;;
53879;SDS011;39791;53.184;5.486;2023-05-10T15:02:23;11.38;;;10.20;;
53879;SDS011;39791;53.184;5.486;2023-05-10T15:04:49;13.80;;;11.15;;
53879;SDS011;39791;53.184;5.486;2023-05-10T15:07:15;14.10;;;10.90;;
53879;SDS011;39791;53.184;5.486;2023-05-10T15:09:43;10.40;;;9.05;;
53879;SDS011;39791;53.184;5.486;2023-05-10T15:12:11;12.05;;;10.80;;
53879;SDS011;39791;53.184;5.486;2023-05-10T15:14:37;12.65;;;11.35;;
53879;SDS011;39791;53.184;5.486;2023-05-10T15:17:02;10.43;;;9.38;;
53879;SDS011;39791;53.184;5.486;2023-05-10T15:19:28;12.32;;;11.15;;